sensor_id;sensor_type;location;lat;lon;timestamp;pressure;altitude;pressure_sealevel;temperature;humidity
13695;BME280;6919;52.344;14.518;2022-10-23T00:01:26;100829.53;;;14.54;100.00
13695;BME280;6919;52.344;14.518;2022-10-23T00:03:58;100836.97;;;14.44;100.00
13695;BME280;6919;52.344;14.518;2022-10-23T00:06:28;100831.97;;;14.25;100.00
13695;BME280;6919;52.344;14.518;2022-10-23T00:08:56;100834.69;;;14.25;100.00
13695;BME280;6919;52.344;14.518;2022-10-23T00:11:27;100832.31;;;14.14;100.00
13695;BME280;6919;52.344;14.518;2022-10-23T00:14:00;100836.50;;;14.16;100.00
13695;BME280;6919;52.344;14.518;2022-10-23T00:16:30;100843.44;;;14.11;100.00
13695;BME280;6919;52.344;14.518;2022-10-23T00:18:59;100836.84;;;14.13;100.00
13695;BME280;6919;52.344;14.518;2022-10-23T00:21:27;100847.84;;;13.96;100.00
13695;BME280;6919;52.344;14.518;2022-10-23T00:23:56;100846.50;;;14.00;100.00
13695;BME280;6919;52.344;14.518;2022-10-23T00:26:24;100841.94;;;13.92;100.00
13695;BME280;6919;52.344;14.518;2022-10-23T00:28:53;100839.38;;;13.99;100.00
13695;BME280;6919;52.344;14.518;2022-10-23T00:31:23;100842.94;;;13.91;100.00
13695;BME280;6919;52.344;14.518;2022-10-23T00:33:52;100846.31;;;13.93;100.00
13695;BME280;6919;52.344;14.518;2022-10-23T00:36:21;100837.53;;;13.99;100.00
13695;BME280;6919;52.344;14.518;2022-10-23T00:38:50;100840.94;;;14.01;100.00
13695;BME280;6919;52.344;14.518;2022-10-23T00:41:22;100846.47;;;14.08;100.00
13695;BME280;6919;52.344;14.518;2022-10-23T00:43:58;100838.03;;;14.11;100.00
13695;BME280;6919;52.344;14.518;2022-10-23T00:46:27;100842.59;;;14.10;100.00
13695;BME280;6919;52.344;14.518;2022-10-23T00:48:57;100840.72;;;14.19;100.00
13695;BME280;6919;52.344;14.518;2022-10-23T00:51:31;100835.31;;;14.19;100.00
13695;BME280;6919;52.344;14.518;2022-10-23T00:54:02;100838.34;;;14.16;100.00
13695;BME280;6919;52.344;14.518;2022-10-23T00:56:51;100845.28;;;14.18;100.00
13695;BME280;6919;52.344;14.518;2022-10-23T00:59:22;100848.47;;;14.06;100.00
13695;BME280;6919;52.344;14.518;2022-10-23T01:01:50;100844.97;;;14.05;100.00
13695;BME280;6919;52.344;14.518;2022-10-23T01:04:21;100852.91;;;13.75;100.00
13695;BME280;6919;52.344;14.518;2022-10-23T01:06:58;100866.06;;;13.78;100.00
13695;BME280;6919;52.344;14.518;2022-10-23T01:09:37;100857.63;;;13.89;100.00
13695;BME280;6919;52.344;14.518;2022-10-23T01:12:14;100857.44;;;13.98;100.00
13695;BME280;6919;52.344;14.518;2022-10-23T01:15:01;100863.50;;;14.00;100.00
13695;BME280;6919;52.344;14.518;2022-10-23T01:17:36;100859.81;;;14.01;100.00
13695;BME280;6919;52.344;14.518;2022-10-23T01:20:31;100866.72;;;13.96;100.00
13695;BME280;6919;52.344;14.518;2022-10-23T01:23:21;100865.34;;;14.08;100.00
13695;BME280;6919;52.344;14.518;2022-10-23T01:26:05;100861.13;;;14.13;100.00
13695;BME280;6919;52.344;14.518;2022-10-23T01:28:47;100868.38;;;13.81;100.00
13695;BME280;6919;52.344;14.518;2022-10-23T01:31:28;100868.56;;;13.71;100.00
13695;BME280;6919;52.344;14.518;2022-10-23T01:34:06;100871.41;;;13.70;100.00
13695;BME280;6919;52.344;14.518;2022-10-23T01:36:40;100867.72;;;13.79;100.00
13695;BME280;6919;52.344;14.518;2022-10-23T01:39:17;100868.91;;;13.76;100.00
13695;BME280;6919;52.344;14.518;2022-10-23T01:41:52;100867.72;;;13.79;100.00
13695;BME280;6919;52.344;14.518;2022-10-23T01:44:28;100860.31;;;13.73;100.00
13695;BME280;6919;52.344;14.518;2022-10-23T01:47:02;100864.88;;;13.80;100.00
13695;BME280;6919;52.344;14.518;2022-10-23T01:49:35;100860.97;;;13.83;100.00
13695;BME280;6919;52.344;14.518;2022-10-23T01:52:09;100864.66;;;13.74;100.00
13695;BME280;6919;52.344;14.518;2022-10-23T01:54:42;100866.69;;;13.80;100.00
13695;BME280;6919;52.344;14.518;2022-10-23T01:57:16;100856.94;;;13.79;100.00
13695;BME280;6919;52.344;14.518;2022-10-23T01:59:52;100862.97;;;14.05;100.00
13695;BME280;6919;52.344;14.518;2022-10-23T02:02:25;100857.75;;;14.03;100.00
13695;BME280;6919;52.344;14.518;2022-10-23T02:05:01;100855.44;;;13.84;100.00
13695;BME280;6919;52.344;14.518;2022-10-23T02:07:30;100851.34;;;13.96;100.00
13695;BME280;6919;52.344;14.518;2022-10-23T02:09:59;100856.91;;;13.95;100.00
13695;BME280;6919;52.344;14.518;2022-10-23T02:12:38;100853.22;;;14.04;100.00
13695;BME280;6919;52.344;14.518;2022-10-23T02:15:18;100857.59;;;13.97;100.00
13695;BME280;6919;52.344;14.518;2022-10-23T02:18:00;100858.44;;;13.81;100.00
13695;BME280;6919;52.344;14.518;2022-10-23T02:20:36;100862.84;;;13.98;100.00
13695;BME280;6919;52.344;14.518;2022-10-23T02:23:17;100869.06;;;13.75;100.00
13695;BME280;6919;52.344;14.518;2022-10-23T02:25:53;100869.41;;;13.64;100.00
13695;BME280;6919;52.344;14.518;2022-10-23T02:28:27;100874.75;;;13.56;100.00
13695;BME280;6919;52.344;14.518;2022-10-23T02:31:00;100873.78;;;13.65;100.00
13695;BME280;6919;52.344;14.518;2022-10-23T02:33:32;100867.38;;;13.66;100.00
13695;BME280;6919;52.344;14.518;2022-10-23T02:36:01;100877.97;;;13.51;100.00
13695;BME280;6919;52.344;14.518;2022-10-23T02:38:34;100872.75;;;13.58;100.00
13695;BME280;6919;52.344;14.518;2022-10-23T02:41:24;100870.91;;;13.66;100.00
13695;BME280;6919;52.344;14.518;2022-10-23T02:44:08;100858.75;;;13.46;100.00
13695;BME280;6919;52.344;14.518;2022-10-23T02:46:49;100857.91;;;13.46;100.00
13695;BME280;6919;52.344;14.518;2022-10-23T02:49:27;100858.91;;;13.37;100.00
13695;BME280;6919;52.344;14.518;2022-10-23T02:52:08;100860.94;;;13.35;100.00
13695;BME280;6919;52.344;14.518;2022-10-23T02:54:52;100862.31;;;13.39;100.00
13695;BME280;6919;52.344;14.518;2022-10-23T02:57:30;100861.94;;;13.26;100.00
13695;BME280;6919;52.344;14.518;2022-10-23T03:00:06;100871.06;;;13.41;100.00
13695;BME280;6919;52.344;14.518;2022-10-23T03:02:41;100869.91;;;13.51;100.00
13695;BME280;6919;52.344;14.518;2022-10-23T03:05:16;100866.53;;;13.73;100.00
13695;BME280;6919;52.344;14.518;2022-10-23T03:07:46;100871.09;;;13.57;100.00
13695;BME280;6919;52.344;14.518;2022-10-23T03:10:15;100869.88;;;13.43;100.00
13695;BME280;6919;52.344;14.518;2022-10-23T03:12:43;100878.47;;;13.55;100.00
13695;BME280;6919;52.344;14.518;2022-10-23T03:15:12;100870.59;;;13.69;100.00
13695;BME280;6919;52.344;14.518;2022-10-23T03:17:43;100872.75;;;13.58;100.00
13695;BME280;6919;52.344;14.518;2022-10-23T03:20:11;100866.03;;;13.54;100.00
13695;BME280;6919;52.344;14.518;2022-10-23T03:22:39;100863.47;;;13.36;100.00
13695;BME280;6919;52.344;14.518;2022-10-23T03:25:08;100871.88;;;13.33;100.00
13695;BME280;6919;52.344;14.518;2022-10-23T03:27:37;100869.00;;;13.35;100.00
13695;BME280;6919;52.344;14.518;2022-10-23T03:30:07;100872.84;;;13.16;100.00
13695;BME280;6919;52.344;14.518;2022-10-23T03:32:35;100872.97;;;13.07;100.00
13695;BME280;6919;52.344;14.518;2022-10-23T03:35:05;100872.31;;;13.13;100.00
13695;BME280;6919;52.344;14.518;2022-10-23T03:37:33;100872.19;;;13.22;100.00
13695;BME280;6919;52.344;14.518;2022-10-23T03:40:03;100872.38;;;13.29;100.00
13695;BME280;6919;52.344;14.518;2022-10-23T03:42:31;100874.53;;;13.17;100.00
13695;BME280;6919;52.344;14.518;2022-10-23T03:44:59;100871.66;;;13.11;100.00
13695;BME280;6919;52.344;14.518;2022-10-23T03:47:27;100877.00;;;13.03;100.00
13695;BME280;6919;52.344;14.518;2022-10-23T03:49:56;100876.41;;;13.25;100.00
13695;BME280;6919;52.344;14.518;2022-10-23T03:52:26;100874.22;;;13.20;100.00
13695;BME280;6919;52.344;14.518;2022-10-23T03:54:54;100878.41;;;13.23;100.00
13695;BME280;6919;52.344;14.518;2022-10-23T03:57:22;100879.13;;;13.33;100.00
13695;BME280;6919;52.344;14.518;2022-10-23T03:59:51;100879.13;;;13.49;100.00
13695;BME280;6919;52.344;14.518;2022-10-23T04:02:19;100874.75;;;13.48;100.00
13695;BME280;6919;52.344;14.518;2022-10-23T04:04:47;100883.19;;;13.53;100.00
13695;BME280;6919;52.344;14.518;2022-10-23T04:07:15;100891.94;;;13.55;100.00
13695;BME280;6919;52.344;14.518;2022-10-23T04:09:44;100888.56;;;13.53;100.00
13695;BME280;6919;52.344;14.518;2022-10-23T04:12:12;100885.88;;;13.45;100.00
13695;BME280;6919;52.344;14.518;2022-10-23T04:14:41;100886.41;;;13.48;100.00
13695;BME280;6919;52.344;14.518;2022-10-23T04:17:09;100881.81;;;13.33;100.00
13695;BME280;6919;52.344;14.518;2022-10-23T04:19:37;100888.94;;;13.58;100.00
13695;BME280;6919;52.344;14.518;2022-10-23T04:22:05;100892.63;;;13.65;100.00
13695;BME280;6919;52.344;14.518;2022-10-23T04:24:33;100885.41;;;13.81;100.00
13695;BME280;6919;52.344;14.518;2022-10-23T04:27:03;100887.94;;;13.83;100.00
13695;BME280;6919;52.344;14.518;2022-10-23T04:29:31;100901.56;;;13.81;100.00
13695;BME280;6919;52.344;14.518;2022-10-23T04:31:59;100889.78;;;13.74;100.00
13695;BME280;6919;52.344;14.518;2022-10-23T04:34:27;100892.47;;;13.74;100.00
13695;BME280;6919;52.344;14.518;2022-10-23T04:36:55;100893.31;;;13.59;100.00
13695;BME280;6919;52.344;14.518;2022-10-23T04:39:23;100893.13;;;13.60;100.00
13695;BME280;6919;52.344;14.518;2022-10-23T04:41:52;100892.28;;;13.44;100.00
13695;BME280;6919;52.344;14.518;2022-10-23T04:44:21;100891.41;;;13.43;100.00
13695;BME280;6919;52.344;14.518;2022-10-23T04:46:49;100889.25;;;13.47;100.00
13695;BME280;6919;52.344;14.518;2022-10-23T04:49:17;100875.94;;;13.37;100.00
13695;BME280;6919;52.344;14.518;2022-10-23T04:51:45;100886.50;;;13.31;100.00
13695;BME280;6919;52.344;14.518;2022-10-23T04:54:13;100882.44;;;13.19;100.00
13695;BME280;6919;52.344;14.518;2022-10-23T04:56:41;100887.84;;;13.27;100.00
13695;BME280;6919;52.344;14.518;2022-10-23T04:59:10;100888.88;;;13.34;100.00
13695;BME280;6919;52.344;14.518;2022-10-23T05:01:40;100891.56;;;13.26;100.00
13695;BME280;6919;52.344;14.518;2022-10-23T05:04:08;100890.38;;;13.20;100.00
13695;BME280;6919;52.344;14.518;2022-10-23T05:06:36;100890.53;;;13.19;100.00
13695;BME280;6919;52.344;14.518;2022-10-23T05:09:04;100894.19;;;13.10;100.00
13695;BME280;6919;52.344;14.518;2022-10-23T05:11:32;100889.72;;;12.93;100.00
13695;BME280;6919;52.344;14.518;2022-10-23T05:14:00;100881.41;;;13.04;100.00
13695;BME280;6919;52.344;14.518;2022-10-23T05:16:36;100889.13;;;13.07;100.00
13695;BME280;6919;52.344;14.518;2022-10-23T05:19:12;100877.25;;;12.92;100.00
13695;BME280;6919;52.344;14.518;2022-10-23T05:21:41;100876.06;;;12.86;100.00
13695;BME280;6919;52.344;14.518;2022-10-23T05:24:10;100874.41;;;12.93;100.00
13695;BME280;6919;52.344;14.518;2022-10-23T05:26:38;100881.63;;;12.85;100.00
13695;BME280;6919;52.344;14.518;2022-10-23T05:29:06;100895.00;;;12.69;100.00
13695;BME280;6919;52.344;14.518;2022-10-23T05:31:35;100892.00;;;12.72;100.00
13695;BME280;6919;52.344;14.518;2022-10-23T05:34:03;100893.56;;;12.82;100.00
13695;BME280;6919;52.344;14.518;2022-10-23T05:36:38;100894.56;;;12.81;100.00
13695;BME280;6919;52.344;14.518;2022-10-23T05:39:06;100869.81;;;12.78;100.00
13695;BME280;6919;52.344;14.518;2022-10-23T05:41:34;100882.94;;;12.81;100.00
13695;BME280;6919;52.344;14.518;2022-10-23T05:44:02;100877.16;;;12.68;100.00
13695;BME280;6919;52.344;14.518;2022-10-23T05:46:30;100879.03;;;12.67;100.00
13695;BME280;6919;52.344;14.518;2022-10-23T05:48:58;100882.66;;;12.58;100.00
13695;BME280;6919;52.344;14.518;2022-10-23T05:51:26;100883.25;;;12.78;100.00
13695;BME280;6919;52.344;14.518;2022-10-23T05:53:55;100882.31;;;12.87;100.00
13695;BME280;6919;52.344;14.518;2022-10-23T05:56:24;100889.97;;;12.74;100.00
13695;BME280;6919;52.344;14.518;2022-10-23T05:58:52;100888.31;;;12.81;100.00
13695;BME280;6919;52.344;14.518;2022-10-23T06:01:20;100888.34;;;12.89;100.00
13695;BME280;6919;52.344;14.518;2022-10-23T06:03:49;100886.16;;;12.84;100.00
13695;BME280;6919;52.344;14.518;2022-10-23T06:06:17;100892.00;;;12.72;100.00
13695;BME280;6919;52.344;14.518;2022-10-23T06:08:46;100888.13;;;12.41;100.00
13695;BME280;6919;52.344;14.518;2022-10-23T06:11:15;100892.53;;;12.50;100.00
13695;BME280;6919;52.344;14.518;2022-10-23T06:13:45;100903.81;;;12.53;100.00
13695;BME280;6919;52.344;14.518;2022-10-23T06:16:17;100903.13;;;12.51;100.00
13695;BME280;6919;52.344;14.518;2022-10-23T06:18:46;100899.38;;;12.44;100.00
13695;BME280;6919;52.344;14.518;2022-10-23T06:21:15;100894.81;;;12.37;100.00
13695;BME280;6919;52.344;14.518;2022-10-23T06:23:45;100890.66;;;12.42;100.00
13695;BME280;6919;52.344;14.518;2022-10-23T06:26:17;100896.50;;;12.38;100.00
13695;BME280;6919;52.344;14.518;2022-10-23T06:28:45;100899.06;;;12.47;100.00
13695;BME280;6919;52.344;14.518;2022-10-23T06:31:15;100905.97;;;12.50;100.00
13695;BME280;6919;52.344;14.518;2022-10-23T06:33:45;100900.00;;;12.64;100.00
13695;BME280;6919;52.344;14.518;2022-10-23T06:36:13;100905.94;;;12.42;100.00
13695;BME280;6919;52.344;14.518;2022-10-23T06:38:41;100912.53;;;12.47;100.00
13695;BME280;6919;52.344;14.518;2022-10-23T06:41:13;100916.22;;;12.46;100.00
13695;BME280;6919;52.344;14.518;2022-10-23T06:43:43;100917.44;;;12.52;100.00
13695;BME280;6919;52.344;14.518;2022-10-23T06:46:14;100920.97;;;12.52;100.00
13695;BME280;6919;52.344;14.518;2022-10-23T06:48:42;100925.22;;;12.63;100.00
13695;BME280;6919;52.344;14.518;2022-10-23T06:51:15;100923.25;;;12.65;100.00
13695;BME280;6919;52.344;14.518;2022-10-23T06:53:44;100922.56;;;12.71;100.00
13695;BME280;6919;52.344;14.518;2022-10-23T06:56:12;100929.28;;;12.67;100.00
13695;BME280;6919;52.344;14.518;2022-10-23T06:58:42;100933.63;;;12.60;100.00
13695;BME280;6919;52.344;14.518;2022-10-23T07:01:12;100930.47;;;12.64;100.00
13695;BME280;6919;52.344;14.518;2022-10-23T07:03:40;100929.72;;;12.80;100.00
13695;BME280;6919;52.344;14.518;2022-10-23T07:06:10;100934.94;;;12.81;100.00
13695;BME280;6919;52.344;14.518;2022-10-23T07:08:38;100934.22;;;12.79;100.00
13695;BME280;6919;52.344;14.518;2022-10-23T07:11:11;100918.03;;;12.97;100.00
13695;BME280;6919;52.344;14.518;2022-10-23T07:13:39;100934.50;;;12.94;100.00
13695;BME280;6919;52.344;14.518;2022-10-23T07:16:13;100927.16;;;13.04;100.00
13695;BME280;6919;52.344;14.518;2022-10-23T07:18:42;100926.03;;;13.22;100.00
13695;BME280;6919;52.344;14.518;2022-10-23T07:21:10;100925.78;;;13.41;100.00
13695;BME280;6919;52.344;14.518;2022-10-23T07:23:38;100923.56;;;13.37;100.00
13695;BME280;6919;52.344;14.518;2022-10-23T07:26:09;100929.34;;;13.50;100.00
13695;BME280;6919;52.344;14.518;2022-10-23T07:28:37;100929.13;;;13.43;100.00
13695;BME280;6919;52.344;14.518;2022-10-23T07:31:07;100935.22;;;13.45;100.00
13695;BME280;6919;52.344;14.518;2022-10-23T07:33:37;100934.03;;;13.56;100.00
13695;BME280;6919;52.344;14.518;2022-10-23T07:36:07;100935.19;;;13.37;100.00
13695;BME280;6919;52.344;14.518;2022-10-23T07:38:36;100931.34;;;13.48;100.00
13695;BME280;6919;52.344;14.518;2022-10-23T07:41:04;100936.34;;;13.35;100.00
13695;BME280;6919;52.344;14.518;2022-10-23T07:43:37;100937.63;;;13.15;100.00
13695;BME280;6919;52.344;14.518;2022-10-23T07:46:05;100931.75;;;13.19;100.00
13695;BME280;6919;52.344;14.518;2022-10-23T07:48:37;100932.47;;;13.29;100.00
13695;BME280;6919;52.344;14.518;2022-10-23T07:51:10;100936.88;;;13.38;100.00
13695;BME280;6919;52.344;14.518;2022-10-23T07:53:39;100942.13;;;13.48;100.00
13695;BME280;6919;52.344;14.518;2022-10-23T07:56:13;100931.56;;;13.62;100.00
13695;BME280;6919;52.344;14.518;2022-10-23T07:58:42;100924.81;;;13.74;100.00
13695;BME280;6919;52.344;14.518;2022-10-23T08:01:17;100932.25;;;13.96;100.00
13695;BME280;6919;52.344;14.518;2022-10-23T08:03:47;100928.72;;;13.96;100.00
13695;BME280;6919;52.344;14.518;2022-10-23T08:06:15;100929.72;;;14.19;100.00
13695;BME280;6919;52.344;14.518;2022-10-23T08:08:43;100927.88;;;14.19;100.00
13695;BME280;6919;52.344;14.518;2022-10-23T08:11:19;100934.78;;;14.30;100.00
13695;BME280;6919;52.344;14.518;2022-10-23T08:13:54;100927.72;;;14.37;100.00
13695;BME280;6919;52.344;14.518;2022-10-23T08:16:23;100922.81;;;14.32;100.00
13695;BME280;6919;52.344;14.518;2022-10-23T08:18:53;100919.41;;;14.62;100.00
13695;BME280;6919;52.344;14.518;2022-10-23T08:21:21;100916.59;;;14.40;100.00
13695;BME280;6919;52.344;14.518;2022-10-23T08:23:52;100924.63;;;14.64;100.00
13695;BME280;6919;52.344;14.518;2022-10-23T08:26:20;100929.00;;;14.65;100.00
13695;BME280;6919;52.344;14.518;2022-10-23T08:28:50;100927.97;;;14.82;100.00
13695;BME280;6919;52.344;14.518;2022-10-23T08:31:20;100924.44;;;15.20;100.00
13695;BME280;6919;52.344;14.518;2022-10-23T08:33:48;100922.66;;;15.43;100.00
13695;BME280;6919;52.344;14.518;2022-10-23T08:36:21;100914.94;;;15.63;100.00
13695;BME280;6919;52.344;14.518;2022-10-23T08:38:50;100914.56;;;15.66;100.00
13695;BME280;6919;52.344;14.518;2022-10-23T08:41:25;100917.34;;;15.58;100.00
13695;BME280;6919;52.344;14.518;2022-10-23T08:44:02;100920.75;;;15.74;100.00
13695;BME280;6919;52.344;14.518;2022-10-23T08:46:40;100913.97;;;15.78;100.00
13695;BME280;6919;52.344;14.518;2022-10-23T08:49:23;100914.75;;;16.09;100.00
13695;BME280;6919;52.344;14.518;2022-10-23T08:52:02;100913.13;;;16.00;100.00
13695;BME280;6919;52.344;14.518;2022-10-23T08:54:51;100913.63;;;16.04;100.00
13695;BME280;6919;52.344;14.518;2022-10-23T08:57:23;100919.09;;;15.96;100.00
13695;BME280;6919;52.344;14.518;2022-10-23T09:00:04;100916.25;;;16.12;100.00
13695;BME280;6919;52.344;14.518;2022-10-23T09:02:37;100922.28;;;16.36;100.00
13695;BME280;6919;52.344;14.518;2022-10-23T09:05:15;100927.53;;;16.38;100.00
13695;BME280;6919;52.344;14.518;2022-10-23T09:08:10;100913.03;;;16.31;100.00
13695;BME280;6919;52.344;14.518;2022-10-23T09:10:57;100913.31;;;16.36;100.00
13695;BME280;6919;52.344;14.518;2022-10-23T09:13:49;100914.59;;;16.25;100.00
13695;BME280;6919;52.344;14.518;2022-10-23T09:16:37;100905.38;;;16.34;100.00
13695;BME280;6919;52.344;14.518;2022-10-23T09:19:15;100910.44;;;16.37;100.00
13695;BME280;6919;52.344;14.518;2022-10-23T09:21:46;100905.72;;;16.54;100.00
13695;BME280;6919;52.344;14.518;2022-10-23T09:24:20;100899.72;;;16.44;100.00
13695;BME280;6919;52.344;14.518;2022-10-23T09:26:52;100908.19;;;16.26;100.00
13695;BME280;6919;52.344;14.518;2022-10-23T09:29:24;100900.50;;;16.30;100.00
13695;BME280;6919;52.344;14.518;2022-10-23T09:31:56;100891.19;;;16.69;100.00
13695;BME280;6919;52.344;14.518;2022-10-23T09:34:27;100895.28;;;16.65;100.00
13695;BME280;6919;52.344;14.518;2022-10-23T09:36:58;100900.69;;;16.65;100.00
13695;BME280;6919;52.344;14.518;2022-10-23T09:39:31;100904.16;;;16.74;100.00
13695;BME280;6919;52.344;14.518;2022-10-23T09:42:06;100900.16;;;16.70;100.00
13695;BME280;6919;52.344;14.518;2022-10-23T09:44:49;100896.13;;;16.80;100.00
13695;BME280;6919;52.344;14.518;2022-10-23T09:47:19;100900.97;;;16.85;100.00
13695;BME280;6919;52.344;14.518;2022-10-23T09:49:51;100905.16;;;17.16;100.00
13695;BME280;6919;52.344;14.518;2022-10-23T09:52:24;100901.69;;;17.22;100.00
13695;BME280;6919;52.344;14.518;2022-10-23T09:54:59;100906.16;;;17.44;100.00
13695;BME280;6919;52.344;14.518;2022-10-23T09:57:33;100906.25;;;17.72;100.00
13695;BME280;6919;52.344;14.518;2022-10-23T10:00:16;100900.00;;;17.93;100.00
13695;BME280;6919;52.344;14.518;2022-10-23T10:02:56;100894.56;;;17.72;100.00
13695;BME280;6919;52.344;14.518;2022-10-23T10:05:29;100902.19;;;17.62;100.00
13695;BME280;6919;52.344;14.518;2022-10-23T10:08:04;100900.50;;;17.61;100.00
13695;BME280;6919;52.344;14.518;2022-10-23T10:10:40;100898.25;;;17.85;100.00
13695;BME280;6919;52.344;14.518;2022-10-23T10:13:34;100892.28;;;17.75;100.00
13695;BME280;6919;52.344;14.518;2022-10-23T10:16:18;100883.88;;;17.85;100.00
13695;BME280;6919;52.344;14.518;2022-10-23T10:19:00;100887.97;;;18.02;100.00
13695;BME280;6919;52.344;14.518;2022-10-23T10:21:36;100884.38;;;18.43;100.00
13695;BME280;6919;52.344;14.518;2022-10-23T10:24:17;100880.38;;;18.67;100.00
13695;BME280;6919;52.344;14.518;2022-10-23T10:26:57;100877.56;;;18.88;100.00
13695;BME280;6919;52.344;14.518;2022-10-23T10:29:48;100877.31;;;18.83;100.00
13695;BME280;6919;52.344;14.518;2022-10-23T10:32:34;100869.66;;;18.99;100.00
13695;BME280;6919;52.344;14.518;2022-10-23T10:35:36;100861.06;;;18.55;100.00
13695;BME280;6919;52.344;14.518;2022-10-23T10:38:39;100859.66;;;19.06;100.00
13695;BME280;6919;52.344;14.518;2022-10-23T10:41:40;100852.00;;;19.23;100.00
13695;BME280;6919;52.344;14.518;2022-10-23T10:47:52;100842.03;;;18.89;100.00
13695;BME280;6919;52.344;14.518;2022-10-23T10:50:32;100840.78;;;18.92;100.00
13695;BME280;6919;52.344;14.518;2022-10-23T10:53:17;100839.13;;;18.57;100.00
13695;BME280;6919;52.344;14.518;2022-10-23T10:55:51;100833.34;;;18.66;100.00
13695;BME280;6919;52.344;14.518;2022-10-23T10:58:28;100834.66;;;18.77;100.00
13695;BME280;6919;52.344;14.518;2022-10-23T11:01:04;100833.34;;;18.73;100.00
13695;BME280;6919;52.344;14.518;2022-10-23T11:03:47;100834.09;;;18.94;100.00
13695;BME280;6919;52.344;14.518;2022-10-23T11:06:23;100835.31;;;18.85;100.00
13695;BME280;6919;52.344;14.518;2022-10-23T11:08:54;100833.53;;;19.12;100.00
13695;BME280;6919;52.344;14.518;2022-10-23T11:11:42;100833.13;;;19.15;100.00
13695;BME280;6919;52.344;14.518;2022-10-23T11:14:15;100826.63;;;19.03;100.00
13695;BME280;6919;52.344;14.518;2022-10-23T11:16:48;100832.31;;;19.21;100.00
13695;BME280;6919;52.344;14.518;2022-10-23T11:19:23;100826.25;;;19.19;100.00
13695;BME280;6919;52.344;14.518;2022-10-23T11:21:58;100820.19;;;19.17;100.00
13695;BME280;6919;52.344;14.518;2022-10-23T11:25:14;100823.09;;;19.09;100.00
13695;BME280;6919;52.344;14.518;2022-10-23T11:28:22;100815.22;;;19.27;100.00
13695;BME280;6919;52.344;14.518;2022-10-23T11:31:10;100806.69;;;19.36;100.00
13695;BME280;6919;52.344;14.518;2022-10-23T11:36:52;100791.63;;;19.34;100.00
13695;BME280;6919;52.344;14.518;2022-10-23T11:39:25;100791.03;;;19.58;100.00
13695;BME280;6919;52.344;14.518;2022-10-23T11:41:56;100789.53;;;19.49;100.00
13695;BME280;6919;52.344;14.518;2022-10-23T11:44:38;100783.47;;;19.60;100.00
13695;BME280;6919;52.344;14.518;2022-10-23T11:47:31;100778.88;;;19.47;100.00
13695;BME280;6919;52.344;14.518;2022-10-23T11:50:27;100771.56;;;19.74;100.00
13695;BME280;6919;52.344;14.518;2022-10-23T11:53:04;100775.56;;;19.65;100.00
13695;BME280;6919;52.344;14.518;2022-10-23T11:56:00;100776.34;;;19.52;100.00
13695;BME280;6919;52.344;14.518;2022-10-23T11:58:42;100767.38;;;19.58;100.00
13695;BME280;6919;52.344;14.518;2022-10-23T12:01:32;100766.53;;;19.45;100.00
13695;BME280;6919;52.344;14.518;2022-10-23T12:04:16;100756.25;;;19.40;100.00
13695;BME280;6919;52.344;14.518;2022-10-23T12:06:51;100753.78;;;19.52;100.00
13695;BME280;6919;52.344;14.518;2022-10-23T12:09:30;100743.72;;;19.65;100.00
13695;BME280;6919;52.344;14.518;2022-10-23T12:12:16;100732.63;;;19.60;100.00
13695;BME280;6919;52.344;14.518;2022-10-23T12:14:47;100733.69;;;19.66;100.00
13695;BME280;6919;52.344;14.518;2022-10-23T12:17:32;100730.53;;;19.82;100.00
13695;BME280;6919;52.344;14.518;2022-10-23T12:20:26;100724.88;;;19.83;100.00
13695;BME280;6919;52.344;14.518;2022-10-23T12:23:18;100724.47;;;19.80;100.00
13695;BME280;6919;52.344;14.518;2022-10-23T12:26:09;100719.41;;;19.96;100.00
13695;BME280;6919;52.344;14.518;2022-10-23T12:28:50;100727.34;;;20.24;100.00
13695;BME280;6919;52.344;14.518;2022-10-23T12:31:35;100717.25;;;20.31;100.00
13695;BME280;6919;52.344;14.518;2022-10-23T12:34:29;100719.25;;;20.62;100.00
13695;BME280;6919;52.344;14.518;2022-10-23T12:37:35;100720.63;;;20.33;100.00
13695;BME280;6919;52.344;14.518;2022-10-23T12:40:09;100718.84;;;20.58;100.00
13695;BME280;6919;52.344;14.518;2022-10-23T12:42:49;100719.41;;;20.73;100.00
13695;BME280;6919;52.344;14.518;2022-10-23T12:45:23;100720.47;;;20.66;100.00
13695;BME280;6919;52.344;14.518;2022-10-23T12:47:52;100720.50;;;20.59;100.00
13695;BME280;6919;52.344;14.518;2022-10-23T12:50:24;100704.53;;;20.69;100.00
13695;BME280;6919;52.344;14.518;2022-10-23T12:52:54;100698.44;;;20.74;100.00
13695;BME280;6919;52.344;14.518;2022-10-23T12:55:25;100697.59;;;20.73;100.00
13695;BME280;6919;52.344;14.518;2022-10-23T12:57:59;100695.56;;;20.62;100.00
13695;BME280;6919;52.344;14.518;2022-10-23T13:00:27;100695.00;;;20.47;100.00
13695;BME280;6919;52.344;14.518;2022-10-23T13:03:00;100697.13;;;20.32;100.00
13695;BME280;6919;52.344;14.518;2022-10-23T13:05:31;100700.25;;;20.49;100.00
13695;BME280;6919;52.344;14.518;2022-10-23T13:08:00;100701.53;;;20.40;100.00
13695;BME280;6919;52.344;14.518;2022-10-23T13:10:29;100686.53;;;19.98;100.00
13695;BME280;6919;52.344;14.518;2022-10-23T13:13:03;100688.00;;;20.00;100.00
13695;BME280;6919;52.344;14.518;2022-10-23T13:15:37;100680.66;;;20.07;100.00
13695;BME280;6919;52.344;14.518;2022-10-23T13:18:07;100679.63;;;20.15;100.00
13695;BME280;6919;52.344;14.518;2022-10-23T13:20:40;100677.31;;;19.99;100.00
13695;BME280;6919;52.344;14.518;2022-10-23T13:23:16;100666.84;;;19.96;100.00